Time;durP1;ratioP1;P1;durP2;ratioP2;P2;SDS_P1;SDS_P2;PMS_P1;PMS_P2;Temp;Humidity;BMP_temperature;BMP_pressure;BME280_temperature;BME280_humidity;BME280_pressure;Samples;Min_cycle;Max_cycle;Signal;HPM_P1;HPM_P2
2022/06/06 00:01:17;;;;;;;2.28;2.08;;;12.20;99.90;;;;;;4981808;28;20492;-73
2022/06/06 00:03:44;;;;;;;2.50;2.25;;;12.20;99.90;;;;;;4964278;28;20058;-73
2022/06/06 00:06:14;;;;;;;2.70;2.40;;;12.10;99.90;;;;;;4975134;28;20046;-73
2022/06/06 00:08:41;;;;;;;2.55;2.13;;;12.20;99.90;;;;;;4985545;28;20096;-73
2022/06/06 00:11:09;;;;;;;2.35;2.10;;;12.20;99.90;;;;;;4991334;28;20052;-73
2022/06/06 00:13:41;;;;;;;2.90;2.25;;;12.10;99.90;;;;;;4967027;28;20058;-74
2022/06/06 00:16:09;;;;;;;2.75;2.10;;;12.10;99.90;;;;;;4975887;28;20046;-74
2022/06/06 00:18:36;;;;;;;2.42;2.22;;;12.10;99.90;;;;;;4991340;28;20152;-73
2022/06/06 00:21:04;;;;;;;2.45;2.25;;;12.10;99.90;;;;;;5002377;28;20096;-73
2022/06/06 00:23:31;;;;;;;2.70;2.50;;;12.10;99.90;;;;;;4974549;28;20120;-73
2022/06/06 00:25:57;;;;;;;2.35;2.15;;;12.10;99.90;;;;;;4985094;28;20133;-73
2022/06/06 00:28:24;;;;;;;2.47;2.28;;;12.10;99.90;;;;;;4980239;28;20126;-73
2022/06/06 00:30:57;;;;;;;2.30;2.10;;;12.10;99.90;;;;;;4966020;28;20162;-74
2022/06/06 00:36:10;;;;;;;2.33;2.03;;;12.10;99.90;;;;;;4985825;28;19956;-73
2022/06/06 00:38:37;;;;;;;2.33;2.10;;;12.00;99.90;;;;;;4984598;28;20699;-73
2022/06/06 00:41:03;;;;;;;2.55;1.98;;;12.00;99.90;;;;;;4984552;28;20129;-73
2022/06/06 00:43:30;;;;;;;2.10;1.90;;;12.00;99.90;;;;;;4971247;28;20066;-73
2022/06/06 00:45:57;;;;;;;2.63;2.30;;;12.00;99.90;;;;;;4988401;28;20132;-73
2022/06/06 00:48:36;;;;;;;2.58;2.38;;;11.90;99.90;;;;;;4961705;28;20074;-73
2022/06/06 00:51:10;;;;;;;2.85;2.33;;;11.90;99.90;;;;;;4973230;28;20168;-73
2022/06/06 00:53:40;;;;;;;2.30;2.10;;;12.00;99.90;;;;;;4971480;28;20084;-73
2022/06/06 00:56:34;;;;;;;2.20;1.95;;;12.00;99.90;;;;;;4971655;28;20133;-73
2022/06/06 00:59:03;;;;;;;1.90;1.80;;;12.00;99.90;;;;;;4995121;28;20500;-73
2022/06/06 01:01:31;;;;;;;2.38;2.17;;;12.00;99.90;;;;;;4961579;28;20154;-73
2022/06/06 01:03:58;;;;;;;2.08;1.60;;;12.00;99.90;;;;;;4960296;28;20057;-73
2022/06/06 01:06:25;;;;;;;2.13;1.92;;;11.90;99.90;;;;;;4979114;28;20070;-73
2022/06/06 01:08:52;;;;;;;2.55;2.10;;;11.90;99.90;;;;;;4987040;28;20141;-73
2022/06/06 01:11:19;;;;;;;2.00;1.80;;;11.90;99.90;;;;;;4988905;28;20042;-73
2022/06/06 01:13:46;;;;;;;2.10;1.83;;;11.90;99.90;;;;;;5005027;28;20134;-72
2022/06/06 01:16:28;;;;;;;2.00;1.80;;;11.90;99.90;;;;;;4994386;28;20830;-72
2022/06/06 01:19:04;;;;;;;1.80;1.65;;;11.80;99.90;;;;;;4977502;28;20066;-72
2022/06/06 01:21:43;;;;;;;1.88;1.67;;;11.80;99.90;;;;;;4966289;28;20080;-72
2022/06/06 01:24:19;;;;;;;1.80;1.70;;;11.80;99.90;;;;;;4987204;28;20097;-73
2022/06/06 01:27:10;;;;;;;2.05;1.80;;;11.80;99.90;;;;;;4978494;28;20062;-72
2022/06/06 01:29:40;;;;;;;1.63;1.42;;;11.90;99.90;;;;;;4976666;28;20792;-73
2022/06/06 01:32:12;;;;;;;2.33;2.13;;;11.90;99.90;;;;;;4978024;28;20078;-73
2022/06/06 01:34:40;;;;;;;1.60;1.50;;;12.00;99.90;;;;;;4978212;28;20053;-72
2022/06/06 01:37:32;;;;;;;1.85;1.65;;;12.00;99.90;;;;;;4972923;28;20821;-73
2022/06/06 01:40:00;;;;;;;2.10;1.50;;;12.10;99.90;;;;;;4961552;28;20077;-73
2022/06/06 01:42:38;;;;;;;1.65;1.55;;;12.10;99.90;;;;;;4984346;28;20539;-73
2022/06/06 01:45:28;;;;;;;1.50;1.25;;;12.20;99.90;;;;;;4981685;28;20100;-73
2022/06/06 01:48:01;;;;;;;1.35;1.25;;;12.30;99.90;;;;;;4985218;28;20046;-72
2022/06/06 01:50:27;;;;;;;2.07;1.87;;;12.30;99.90;;;;;;4958680;28;20960;-72
2022/06/06 01:52:59;;;;;;;1.85;1.50;;;12.30;99.90;;;;;;4975430;28;20663;-72
2022/06/06 01:55:27;;;;;;;1.80;1.45;;;12.40;99.90;;;;;;4986624;28;20071;-72
2022/06/06 01:57:56;;;;;;;2.22;2.03;;;12.40;99.90;;;;;;4982641;28;20129;-72
2022/06/06 02:00:23;;;;;;;1.90;1.70;;;12.40;99.90;;;;;;4971720;28;20150;-72
2022/06/06 02:02:50;;;;;;;2.42;1.80;;;12.50;99.90;;;;;;4978449;28;20081;-73
2022/06/06 02:05:17;;;;;;;2.70;1.92;;;12.50;99.90;;;;;;4955875;28;20046;-72
2022/06/06 02:07:44;;;;;;;2.17;1.98;;;12.50;99.90;;;;;;4989760;28;20061;-72
2022/06/06 02:10:11;;;;;;;2.38;2.15;;;12.50;99.90;;;;;;4973307;28;20134;-72
2022/06/06 02:12:38;;;;;;;2.20;1.95;;;12.60;99.90;;;;;;4972642;28;20648;-73
2022/06/06 02:15:06;;;;;;;2.35;1.60;;;12.60;99.90;;;;;;4985382;28;20128;-72
2022/06/06 02:17:33;;;;;;;2.00;1.80;;;12.60;99.90;;;;;;5002675;28;20230;-72
2022/06/06 02:20:04;;;;;;;2.50;2.08;;;12.70;99.90;;;;;;5003473;28;20060;-73
2022/06/06 02:22:31;;;;;;;2.20;1.98;;;12.70;99.90;;;;;;4942353;28;1138891;-73
2022/06/06 02:24:58;;;;;;;1.92;1.73;;;12.70;99.90;;;;;;5004937;28;20670;-73
2022/06/06 02:27:25;;;;;;;1.70;1.60;;;12.70;99.90;;;;;;4995288;28;20056;-73
2022/06/06 02:29:52;;;;;;;2.08;1.77;;;12.70;99.90;;;;;;4983549;28;20176;-74
2022/06/06 02:32:19;;;;;;;1.63;1.40;;;12.80;99.90;;;;;;4967146;28;20049;-73
2022/06/06 02:34:45;;;;;;;2.25;2.05;;;12.80;99.90;;;;;;5004393;28;20050;-72
2022/06/06 02:37:12;;;;;;;2.47;1.85;;;12.80;99.90;;;;;;4977058;28;20509;-72
2022/06/06 02:39:39;;;;;;;1.33;1.23;;;12.80;99.90;;;;;;5001242;28;20149;-72
2022/06/06 02:42:06;;;;;;;1.58;1.48;;;12.80;99.90;;;;;;4976776;28;20102;-73
2022/06/06 02:44:32;;;;;;;1.63;1.42;;;12.80;99.90;;;;;;4970783;28;20398;-73
2022/06/06 02:46:59;;;;;;;1.55;1.30;;;12.80;99.90;;;;;;4986860;28;20081;-72
2022/06/06 02:49:26;;;;;;;2.25;2.05;;;12.90;99.90;;;;;;4987363;28;20568;-72
2022/06/06 02:51:53;;;;;;;2.08;1.88;;;12.90;99.90;;;;;;4979758;28;20218;-72
2022/06/06 02:54:19;;;;;;;2.45;2.15;;;12.90;99.90;;;;;;4983548;28;20042;-72
2022/06/06 02:56:46;;;;;;;2.55;2.15;;;12.90;99.90;;;;;;4973083;28;20905;-73
2022/06/06 02:59:13;;;;;;;2.30;1.88;;;12.90;99.90;;;;;;4989450;28;20092;-73
2022/06/06 03:01:39;;;;;;;2.05;1.85;;;12.90;99.90;;;;;;4972133;28;20074;-73
2022/06/06 03:04:06;;;;;;;1.55;1.42;;;12.90;99.90;;;;;;4985458;28;20046;-72
2022/06/06 03:06:34;;;;;;;2.00;1.80;;;12.90;99.90;;;;;;4970905;28;20088;-73
2022/06/06 03:09:53;;;;;;;2.42;1.90;;;13.00;99.90;;;;;;4969461;28;21311;-73
2022/06/06 03:12:27;;;;;;;1.60;1.50;;;13.00;99.90;;;;;;4936650;28;20450;-73
2022/06/06 03:15:21;;;;;;;1.73;1.63;;;12.90;99.90;;;;;;4974035;28;20141;-73
2022/06/06 03:21:21;;;;;;;1.85;1.75;;;12.90;99.90;;;;;;4989239;28;20085;-72
2022/06/06 03:23:50;;;;;;;2.72;1.85;;;12.90;99.90;;;;;;4981000;28;20181;-72
2022/06/06 03:26:33;;;;;;;2.22;1.80;;;12.90;99.90;;;;;;4998463;28;20129;-72
2022/06/06 03:29:31;;;;;;;1.63;1.52;;;12.90;99.90;;;;;;4980267;28;20096;-73
2022/06/06 03:32:16;;;;;;;1.95;1.58;;;12.90;99.90;;;;;;4967696;28;20077;-72
2022/06/06 03:34:55;;;;;;;2.00;1.80;;;13.00;99.90;;;;;;4968183;28;20561;-72
2022/06/06 03:37:48;;;;;;;1.98;1.27;;;13.00;99.90;;;;;;4962274;28;20054;-72
2022/06/06 03:40:57;;;;;;;1.95;1.60;;;13.00;99.90;;;;;;4964525;28;20054;-73
2022/06/06 03:43:53;;;;;;;1.80;1.48;;;13.00;99.90;;;;;;4959937;28;20157;-72
2022/06/06 03:46:51;;;;;;;1.52;1.42;;;13.10;99.90;;;;;;4980143;28;20061;-72
2022/06/06 03:49:51;;;;;;;1.45;1.35;;;13.10;99.90;;;;;;5001259;28;20069;-73
2022/06/06 03:52:26;;;;;;;1.83;1.40;;;13.10;99.90;;;;;;4977884;28;20042;-73
2022/06/06 03:55:09;;;;;;;2.13;1.75;;;13.00;99.90;;;;;;4975520;28;20085;-72
2022/06/06 03:57:36;;;;;;;1.90;1.80;;;13.10;99.90;;;;;;5003576;28;20197;-73
2022/06/06 04:00:07;;;;;;;1.70;1.50;;;13.10;99.90;;;;;;4971325;28;20103;-72
2022/06/06 04:02:35;;;;;;;1.60;1.50;;;13.10;99.90;;;;;;4984744;28;20141;-73
2022/06/06 04:05:05;;;;;;;2.00;1.35;;;13.10;99.90;;;;;;5003737;28;20088;-72
2022/06/06 04:07:33;;;;;;;2.00;1.80;;;13.10;99.90;;;;;;4986908;28;20137;-73
2022/06/06 04:10:00;;;;;;;2.10;1.35;;;13.20;99.90;;;;;;4959793;28;20058;-72
2022/06/06 04:12:33;;;;;;;1.70;1.58;;;13.10;99.90;;;;;;4969333;28;20398;-74
2022/06/06 04:15:30;;;;;;;1.38;1.20;;;13.20;99.90;;;;;;5003756;28;20076;-73
2022/06/06 04:18:07;;;;;;;1.77;1.40;;;13.20;99.90;;;;;;4971700;28;20132;-73
2022/06/06 04:20:36;;;;;;;1.90;1.60;;;13.20;99.90;;;;;;4975408;28;20510;-73
2022/06/06 04:23:11;;;;;;;2.20;1.77;;;13.20;99.90;;;;;;4979409;28;20081;-72
2022/06/06 04:25:47;;;;;;;2.08;1.60;;;13.20;99.90;;;;;;4984846;28;20088;-72
2022/06/06 04:28:52;;;;;;;1.80;1.50;;;13.20;99.90;;;;;;4981233;28;20085;-71
2022/06/06 04:31:31;;;;;;;1.65;1.52;;;13.20;99.90;;;;;;4992707;28;20149;-72
2022/06/06 04:34:09;;;;;;;1.70;1.27;;;13.20;99.90;;;;;;4970004;28;20041;-73
2022/06/06 04:36:59;;;;;;;1.73;1.52;;;13.20;99.90;;;;;;4985992;28;20088;-73
2022/06/06 04:39:53;;;;;;;1.70;1.40;;;13.20;99.90;;;;;;5004686;28;20069;-72
2022/06/06 04:42:25;;;;;;;1.30;1.20;;;13.20;99.90;;;;;;5003580;28;20415;-72
2022/06/06 04:45:07;;;;;;;1.08;0.98;;;13.20;99.90;;;;;;5000211;28;20049;-72
2022/06/06 04:47:36;;;;;;;2.35;1.25;;;13.20;99.90;;;;;;4986810;28;20140;-72
2022/06/06 04:50:05;;;;;;;2.10;1.05;;;13.30;99.90;;;;;;4948086;28;20454;-74
2022/06/06 04:52:33;;;;;;;1.17;1.00;;;13.30;99.90;;;;;;4950979;28;20458;-74
2022/06/06 04:55:00;;;;;;;0.80;0.80;;;13.40;99.90;;;;;;4981417;28;20541;-74
2022/06/06 04:57:27;;;;;;;1.23;1.00;;;13.40;99.90;;;;;;4981616;28;20573;-74
2022/06/06 04:59:54;;;;;;;1.20;1.10;;;13.40;99.90;;;;;;4959551;28;20137;-74
2022/06/06 05:02:21;;;;;;;1.05;0.95;;;13.40;99.90;;;;;;4963483;28;20128;-74
2022/06/06 05:04:48;;;;;;;1.23;1.08;;;13.50;99.90;;;;;;4959456;28;20078;-73
2022/06/06 05:07:27;;;;;;;1.02;0.93;;;13.50;99.90;;;;;;4998824;28;20054;-74
2022/06/06 05:10:16;;;;;;;0.77;0.77;;;13.50;99.90;;;;;;4977216;28;20149;-74
2022/06/06 05:12:59;;;;;;;0.68;0.60;;;13.40;99.90;;;;;;4996295;28;20133;-74
2022/06/06 05:15:32;;;;;;;0.73;0.73;;;13.40;99.90;;;;;;4974065;28;20248;-74
2022/06/06 05:18:17;;;;;;;0.90;0.80;;;13.40;99.90;;;;;;5000322;28;20462;-74
2022/06/06 05:20:49;;;;;;;1.45;1.20;;;13.40;99.90;;;;;;4972806;28;20499;-73
2022/06/06 05:23:48;;;;;;;1.30;1.20;;;13.30;99.90;;;;;;4982109;28;20085;-74
2022/06/06 05:26:26;;;;;;;1.67;1.10;;;13.30;99.90;;;;;;4940453;28;20190;-73
2022/06/06 05:29:05;;;;;;;1.10;0.95;;;13.30;99.90;;;;;;4988604;28;20050;-74
2022/06/06 05:31:35;;;;;;;1.50;0.90;;;13.30;99.90;;;;;;4995149;28;20136;-73
2022/06/06 05:34:12;;;;;;;0.93;0.90;;;13.30;99.90;;;;;;4993631;28;20053;-74
2022/06/06 05:37:14;;;;;;;0.60;0.60;;;13.20;99.90;;;;;;4972207;28;20161;-74
2022/06/06 05:40:14;;;;;;;1.20;1.10;;;13.20;99.90;;;;;;4971982;28;20049;-74
2022/06/06 05:42:45;;;;;;;1.50;1.40;;;13.20;99.90;;;;;;4979869;28;20152;-74
2022/06/06 05:45:33;;;;;;;1.55;1.17;;;13.10;99.90;;;;;;4979950;28;20051;-74
2022/06/06 05:48:33;;;;;;;1.50;1.10;;;13.10;99.90;;;;;;4994711;28;20050;-73
2022/06/06 05:51:19;;;;;;;1.73;1.30;;;13.10;99.90;;;;;;4960052;28;20256;-74
2022/06/06 05:54:16;;;;;;;1.23;1.13;;;13.10;99.90;;;;;;4992733;28;20141;-75
2022/06/06 05:57:02;;;;;;;1.27;1.13;;;13.10;99.90;;;;;;4982508;28;20627;-73
2022/06/06 05:59:51;;;;;;;1.38;1.20;;;13.10;99.90;;;;;;4978002;28;20138;-74
2022/06/06 06:02:50;;;;;;;1.17;1.08;;;13.10;99.90;;;;;;4999574;28;20077;-75
2022/06/06 06:05:28;;;;;;;1.45;1.30;;;13.10;99.90;;;;;;4979789;28;20070;-74
2022/06/06 06:08:16;;;;;;;2.10;1.20;;;13.10;99.90;;;;;;4978414;28;20089;-74
2022/06/06 06:11:12;;;;;;;1.25;1.13;;;13.00;99.90;;;;;;4996732;28;20576;-74
2022/06/06 06:13:51;;;;;;;1.33;0.93;;;13.10;99.90;;;;;;4978905;28;20101;-75
2022/06/06 06:16:18;;;;;;;1.50;1.30;;;13.10;99.90;;;;;;4994328;28;20125;-69
2022/06/06 06:18:59;;;;;;;1.60;1.20;;;13.00;99.90;;;;;;4962295;28;20056;-69
2022/06/06 06:21:28;;;;;;;1.63;1.20;;;13.00;99.90;;;;;;4946244;29;20131;-69
2022/06/06 06:24:08;;;;;;;2.40;1.80;;;13.00;99.90;;;;;;4944617;28;20059;-69
2022/06/06 06:26:35;;;;;;;1.20;1.10;;;12.90;99.90;;;;;;4947863;28;20075;-69
2022/06/06 06:29:04;;;;;;;1.77;1.17;;;13.00;99.90;;;;;;4962398;28;20089;-69
2022/06/06 06:31:52;;;;;;;1.50;1.20;;;12.90;99.90;;;;;;4963888;28;20074;-70
2022/06/06 06:34:46;;;;;;;1.92;1.50;;;13.00;99.90;;;;;;4949286;28;20102;-69
2022/06/06 06:37:30;;;;;;;1.45;1.20;;;13.00;99.90;;;;;;4940976;28;20082;-69
2022/06/06 06:40:00;;;;;;;1.30;1.20;;;13.00;99.90;;;;;;4942172;28;20459;-69
2022/06/06 06:42:52;;;;;;;1.17;1.08;;;13.00;99.90;;;;;;4955158;28;20062;-70
2022/06/06 06:45:28;;;;;;;1.10;1.00;;;12.90;99.90;;;;;;4955443;28;20043;-69
2022/06/06 06:47:59;;;;;;;1.52;1.35;;;12.90;99.90;;;;;;4957414;28;20078;-76
2022/06/06 06:50:54;;;;;;;1.48;0.98;;;12.90;99.90;;;;;;4958307;28;20078;-75
2022/06/06 06:53:24;;;;;;;1.00;0.90;;;12.90;99.90;;;;;;4965256;28;20138;-68
2022/06/06 06:56:31;;;;;;;1.00;0.80;;;12.90;99.90;;;;;;4967904;28;20082;-68
2022/06/06 06:59:08;;;;;;;1.33;1.15;;;12.80;99.90;;;;;;4890445;29;20380;-68
2022/06/06 07:11:22;;;;;;;0.40;0.40;;;12.70;99.90;;;;;;4951987;28;20158;-69
2022/06/06 07:14:07;;;;;;;0.55;0.38;;;12.60;99.90;;;;;;4958137;28;20055;-68
2022/06/06 07:16:35;;;;;;;0.30;0.30;;;12.60;99.90;;;;;;4961573;28;20489;-68
2022/06/06 07:19:13;;;;;;;0.20;0.20;;;12.50;99.90;;;;;;4961669;28;20055;-68
2022/06/06 07:21:40;;;;;;;0.20;0.20;;;12.60;99.90;;;;;;4946681;28;20097;-68
2022/06/06 07:24:09;;;;;;;0.20;0.20;;;12.60;99.90;;;;;;4963671;28;20107;-68
2022/06/06 07:26:38;;;;;;;0.20;0.20;;;12.70;99.90;;;;;;4964772;28;20465;-68
2022/06/06 07:29:06;;;;;;;0.22;0.20;;;12.80;99.90;;;;;;4964443;28;20126;-68
2022/06/06 07:31:51;;;;;;;0.63;0.25;;;12.80;99.90;;;;;;4966204;28;20050;-68
2022/06/06 07:34:22;;;;;;;0.20;0.20;;;12.90;99.90;;;;;;4961731;28;20241;-68
2022/06/06 07:37:16;;;;;;;0.20;0.20;;;12.90;99.90;;;;;;4961435;28;20145;-68
2022/06/06 07:40:12;;;;;;;0.50;0.50;;;12.90;99.90;;;;;;4961711;28;20573;-68
2022/06/06 07:43:17;;;;;;;0.40;0.40;;;12.80;99.90;;;;;;4931412;28;20122;-68
2022/06/06 07:45:48;;;;;;;0.38;0.38;;;12.80;99.90;;;;;;4961804;28;20141;-68
2022/06/06 07:48:21;;;;;;;1.50;0.57;;;12.70;99.90;;;;;;4963559;28;20133;-68
2022/06/06 07:51:12;;;;;;;0.50;0.50;;;12.70;99.90;;;;;;4957792;28;20090;-68
2022/06/06 07:53:56;;;;;;;0.47;0.47;;;12.80;99.90;;;;;;4957701;28;20057;-69
2022/06/06 07:56:51;;;;;;;0.30;0.30;;;12.80;99.90;;;;;;4964523;28;20403;-68
2022/06/06 07:59:24;;;;;;;0.40;0.40;;;12.90;99.90;;;;;;4965399;28;20082;-68
2022/06/06 08:02:03;;;;;;;;;;;12.90;99.90;;;;;;4965003;28;20053;-67
2022/06/06 08:05:02;;;;;;;0.30;0.30;;;12.90;99.90;;;;;;4958333;28;20362;-68
2022/06/06 08:07:47;;;;;;;0.47;0.47;;;13.00;99.90;;;;;;4952631;28;20158;-69
2022/06/06 08:10:21;;;;;;;0.40;0.30;;;13.00;99.90;;;;;;4958199;28;20474;-68
2022/06/06 08:13:10;;;;;;;0.43;0.30;;;13.10;99.90;;;;;;4961724;28;20042;-68
2022/06/06 08:16:08;;;;;;;0.38;0.38;;;13.20;99.90;;;;;;4955408;28;20156;-68
2022/06/06 08:19:00;;;;;;;0.30;0.30;;;13.20;99.90;;;;;;4935396;28;20047;-80
2022/06/06 08:21:40;;;;;;;0.60;0.50;;;13.20;99.90;;;;;;4957946;28;20403;-68
2022/06/06 08:24:11;;;;;;;0.52;0.40;;;13.40;99.90;;;;;;4982967;28;20097;-68
2022/06/06 08:27:01;;;;;;;0.40;0.40;;;13.40;99.90;;;;;;4980001;28;20046;-68
2022/06/06 08:29:28;;;;;;;0.40;0.38;;;13.40;99.90;;;;;;4983530;28;20050;-67
2022/06/06 08:31:55;;;;;;;0.43;0.43;;;13.40;99.90;;;;;;4967385;28;20153;-68
2022/06/06 08:34:21;;;;;;;0.40;0.40;;;13.40;99.90;;;;;;4984409;28;20085;-68
2022/06/06 08:36:51;;;;;;;0.40;0.40;;;13.30;99.90;;;;;;4983517;28;20081;-68
2022/06/06 08:39:39;;;;;;;0.40;0.40;;;13.40;99.90;;;;;;4967005;28;20086;-68
2022/06/06 08:42:29;;;;;;;0.80;0.40;;;13.50;99.90;;;;;;4984422;28;20141;-67
2022/06/06 08:45:14;;;;;;;0.47;0.30;;;13.60;99.90;;;;;;4982266;28;20237;-69
2022/06/06 08:48:02;;;;;;;0.30;0.30;;;13.70;99.90;;;;;;4976986;28;20145;-67
2022/06/06 08:50:46;;;;;;;0.40;0.40;;;13.90;99.90;;;;;;4978259;28;20050;-67
2022/06/06 08:53:44;;;;;;;0.30;0.30;;;14.00;99.90;;;;;;4980704;28;20515;-67
2022/06/06 08:56:35;;;;;;;0.40;0.40;;;14.10;99.90;;;;;;4984816;28;20363;-67
2022/06/06 08:59:33;;;;;;;0.40;0.40;;;14.20;99.90;;;;;;4980166;28;20311;-67
2022/06/06 09:02:03;;;;;;;0.32;0.32;;;14.30;99.90;;;;;;4980939;28;20083;-67
2022/06/06 09:05:07;;;;;;;0.40;0.40;;;14.30;99.90;;;;;;4982940;28;20060;-67
2022/06/06 09:07:34;;;;;;;1.02;0.43;;;14.30;99.90;;;;;;4983629;28;20446;-66
2022/06/06 09:10:34;;;;;;;1.55;0.30;;;14.20;99.90;;;;;;4977716;28;20051;-70
2022/06/06 09:13:20;;;;;;;0.55;0.50;;;14.10;99.90;;;;;;4977338;28;20088;-67
2022/06/06 09:16:30;;;;;;;0.45;0.45;;;14.00;99.90;;;;;;4981583;28;20054;-67
2022/06/06 09:19:43;;;;;;;1.38;0.70;;;14.00;99.90;;;;;;4963321;28;20081;-66
2022/06/06 09:22:21;;;;;;;0.70;0.70;;;13.90;99.90;;;;;;4937780;29;20098;-73
2022/06/06 09:25:05;;;;;;;0.60;0.60;;;14.00;99.90;;;;;;4958557;28;20138;-76
2022/06/06 09:27:41;;;;;;;0.88;0.82;;;14.10;99.90;;;;;;4951811;28;20073;-67
2022/06/06 09:30:42;;;;;;;1.23;0.80;;;14.10;99.90;;;;;;4947573;28;20083;-71
2022/06/06 09:33:37;;;;;;;1.40;0.80;;;14.10;99.90;;;;;;4950109;28;20142;-67
2022/06/06 09:36:25;;;;;;;0.80;0.73;;;14.10;99.90;;;;;;4950025;28;20083;-70
2022/06/06 09:39:33;;;;;;;0.45;0.40;;;14.30;99.90;;;;;;4947209;28;20055;-70
2022/06/06 09:42:20;;;;;;;0.73;0.43;;;14.30;99.90;;;;;;4913207;29;20109;-70
2022/06/06 09:45:09;;;;;;;0.95;0.70;;;14.30;99.90;;;;;;4947143;28;20188;-68
2022/06/06 09:48:14;;;;;;;0.80;0.60;;;14.20;99.90;;;;;;4955251;28;20150;-68
2022/06/06 09:51:03;;;;;;;0.63;0.50;;;14.20;99.90;;;;;;4963205;28;20569;-68
2022/06/06 09:53:33;;;;;;;0.50;0.40;;;14.20;99.90;;;;;;4961679;28;20134;-70
2022/06/06 09:59:26;;;;;;;0.50;0.50;;;14.20;99.90;;;;;;4958762;28;20491;-68
2022/06/06 10:02:01;;;;;;;0.40;0.40;;;14.20;99.90;;;;;;4961715;28;20142;-67
2022/06/06 10:04:50;;;;;;;0.43;0.43;;;14.20;99.90;;;;;;4960072;28;20151;-67
2022/06/06 10:07:29;;;;;;;0.40;0.40;;;14.20;99.90;;;;;;4959560;28;20051;-68
2022/06/06 10:10:31;;;;;;;0.30;0.30;;;14.20;99.90;;;;;;4962851;28;20050;-68
2022/06/06 10:13:26;;;;;;;0.40;0.40;;;14.20;99.90;;;;;;4922773;29;20646;-69
2022/06/06 10:16:23;;;;;;;0.40;0.40;;;14.20;99.90;;;;;;4937856;29;20142;-68
2022/06/06 10:19:05;;;;;;;0.28;0.25;;;14.20;99.90;;;;;;4935327;28;20505;-67
2022/06/06 10:22:10;;;;;;;0.30;0.30;;;14.10;99.90;;;;;;4962816;28;20245;-67
2022/06/06 10:25:31;;;;;;;0.40;0.40;;;14.20;99.90;;;;;;4938624;28;20130;-67
2022/06/06 10:28:23;;;;;;;1.05;0.65;;;14.30;99.90;;;;;;4922616;29;20150;-67
2022/06/06 10:31:14;;;;;;;0.30;0.30;;;14.40;99.90;;;;;;4950211;28;20138;-68
2022/06/06 10:34:13;;;;;;;0.52;0.40;;;14.50;99.90;;;;;;4950055;28;20054;-68
2022/06/06 10:36:48;;;;;;;0.70;0.52;;;14.60;99.90;;;;;;4885567;28;20084;-68
2022/06/06 10:39:37;;;;;;;0.38;0.30;;;14.60;99.90;;;;;;4966992;28;20059;-68
2022/06/06 10:42:14;;;;;;;0.30;0.30;;;14.60;99.90;;;;;;4964287;28;20089;-68
2022/06/06 10:45:13;;;;;;;0.20;0.20;;;14.60;99.90;;;;;;4948878;28;20375;-68
2022/06/06 10:48:07;;;;;;;0.38;0.38;;;14.50;99.90;;;;;;4946614;29;20087;-67
2022/06/06 10:54:20;;;;;;;0.65;0.47;;;14.50;99.90;;;;;;4950047;28;20138;-67
2022/06/06 10:57:12;;;;;;;0.80;0.60;;;14.50;99.90;;;;;;4905383;29;20205;-68
2022/06/06 11:00:09;;;;;;;0.52;0.40;;;14.50;99.90;;;;;;4966133;28;20458;-67
2022/06/06 11:03:13;;;;;;;0.70;0.50;;;14.60;99.90;;;;;;4967352;28;20445;-67
2022/06/06 11:06:11;;;;;;;0.57;0.50;;;14.70;99.90;;;;;;4966529;28;20050;-66
2022/06/06 11:09:00;;;;;;;0.50;0.50;;;14.70;99.90;;;;;;4966273;28;20097;-66
2022/06/06 11:11:49;;;;;;;0.50;0.50;;;14.80;99.90;;;;;;4966278;28;20517;-67
2022/06/06 11:14:25;;;;;;;1.00;0.60;;;14.90;99.90;;;;;;4966249;28;20129;-66
2022/06/06 11:17:16;;;;;;;0.43;0.43;;;15.00;99.90;;;;;;4964734;28;20209;-67
2022/06/06 11:19:57;;;;;;;0.40;0.30;;;15.00;99.90;;;;;;4965525;28;20138;-66
2022/06/06 11:22:36;;;;;;;0.70;0.50;;;15.10;99.90;;;;;;4985785;28;20101;-65
2022/06/06 11:25:19;;;;;;;0.68;0.60;;;15.00;99.90;;;;;;4984057;28;20149;-66
2022/06/06 11:28:20;;;;;;;0.82;0.50;;;14.90;99.90;;;;;;5001127;28;20140;-66
2022/06/06 11:31:07;;;;;;;0.68;0.55;;;14.90;99.90;;;;;;4958168;28;20100;-65
2022/06/06 11:34:16;;;;;;;0.60;0.50;;;14.90;99.90;;;;;;4994339;28;20042;-64
2022/06/06 11:36:48;;;;;;;1.02;0.50;;;14.90;99.90;;;;;;5000909;28;20406;-66
2022/06/06 11:39:54;;;;;;;1.55;0.55;;;14.90;99.90;;;;;;4998222;28;20351;-66
2022/06/06 11:42:25;;;;;;;0.65;0.40;;;15.00;99.90;;;;;;4997877;28;20502;-66
2022/06/06 11:45:16;;;;;;;1.15;0.50;;;15.10;99.90;;;;;;4998043;28;20352;-66
2022/06/06 11:48:21;;;;;;;0.50;0.50;;;15.20;99.90;;;;;;4962992;28;20137;-66
2022/06/06 11:50:50;;;;;;;0.82;0.40;;;15.50;99.90;;;;;;4948041;28;20088;-66
2022/06/06 11:53:43;;;;;;;0.40;0.40;;;15.60;99.90;;;;;;4989586;28;20061;-66
2022/06/06 11:56:20;;;;;;;0.77;0.45;;;15.70;99.90;;;;;;4998855;28;20104;-66
2022/06/06 11:58:59;;;;;;;0.40;0.40;;;15.80;99.90;;;;;;4972739;28;20395;-66
2022/06/06 12:02:00;;;;;;;0.50;0.50;;;15.90;99.90;;;;;;4996144;28;20062;-66
2022/06/06 12:05:00;;;;;;;0.52;0.40;;;15.90;99.90;;;;;;4992780;28;20136;-66
2022/06/06 12:07:39;;;;;;;0.70;0.47;;;16.00;99.90;;;;;;4995726;28;20135;-66
2022/06/06 12:10:20;;;;;;;0.90;0.50;;;15.90;99.90;;;;;;4992951;28;20141;-67
2022/06/06 12:13:16;;;;;;;0.40;0.40;;;15.90;99.90;;;;;;4966005;28;20145;-66
2022/06/06 12:15:49;;;;;;;0.50;0.50;;;16.00;99.90;;;;;;4967019;28;20148;-66
2022/06/06 12:18:25;;;;;;;0.50;0.50;;;15.80;99.90;;;;;;4985335;28;20045;-66
2022/06/06 12:21:04;;;;;;;0.85;0.70;;;15.70;99.90;;;;;;4990547;28;20077;-65
2022/06/06 12:23:48;;;;;;;1.73;0.80;;;15.50;99.90;;;;;;4975804;28;20474;-65
2022/06/06 12:26:15;;;;;;;0.60;0.60;;;15.40;99.90;;;;;;4976799;28;20134;-66
2022/06/06 12:29:21;;;;;;;0.95;0.60;;;15.50;99.90;;;;;;4992666;28;20088;-66
2022/06/06 12:32:06;;;;;;;0.98;0.60;;;15.60;99.90;;;;;;4990992;28;20216;-66
2022/06/06 12:34:40;;;;;;;0.80;0.80;;;15.70;99.90;;;;;;4985018;28;20050;-66
2022/06/06 12:37:14;;;;;;;1.35;1.00;;;15.60;99.90;;;;;;4973150;28;20046;-66
2022/06/06 12:40:09;;;;;;;0.95;0.70;;;15.60;99.90;;;;;;4976280;28;20181;-66
2022/06/06 12:42:56;;;;;;;1.33;0.77;;;15.70;99.90;;;;;;4985907;28;20200;-65
2022/06/06 12:45:41;;;;;;;0.90;0.75;;;15.70;99.90;;;;;;4981511;28;20070;-65
2022/06/06 12:48:31;;;;;;;0.50;0.50;;;15.80;99.90;;;;;;5001755;28;20057;-66
2022/06/06 12:51:12;;;;;;;0.70;0.52;;;15.90;99.90;;;;;;4989404;28;20108;-66
2022/06/06 12:53:50;;;;;;;0.57;0.50;;;16.00;99.90;;;;;;5003259;28;20077;-66
2022/06/06 12:56:40;;;;;;;0.77;0.70;;;15.90;99.90;;;;;;5000255;28;20160;-65
2022/06/06 12:59:25;;;;;;;0.93;0.70;;;15.90;99.90;;;;;;4975865;28;20392;-65
2022/06/06 13:02:03;;;;;;;0.70;0.60;;;16.00;99.90;;;;;;4997047;28;20080;-66
2022/06/06 13:04:36;;;;;;;1.13;0.77;;;16.10;99.90;;;;;;4993791;28;20497;-66
2022/06/06 13:07:24;;;;;;;0.50;0.50;;;16.20;99.90;;;;;;4997148;28;20081;-66
2022/06/06 13:10:13;;;;;;;0.75;0.68;;;16.40;99.90;;;;;;4992851;28;20092;-66
2022/06/06 13:12:55;;;;;;;1.08;0.80;;;16.70;99.90;;;;;;4983246;28;20132;-66
2022/06/06 13:15:59;;;;;;;1.48;0.70;;;17.10;99.90;;;;;;4996677;28;20133;-66
2022/06/06 13:19:08;;;;;;;0.60;0.60;;;17.60;99.90;;;;;;4983929;28;20097;-66
2022/06/06 13:21:42;;;;;;;1.40;0.88;;;17.90;99.90;;;;;;4956262;28;20519;-65
2022/06/06 13:24:17;;;;;;;1.25;0.90;;;17.90;99.90;;;;;;4999180;28;20046;-66
2022/06/06 13:26:50;;;;;;;0.68;0.60;;;18.00;99.90;;;;;;4983426;28;20509;-66
2022/06/06 13:29:27;;;;;;;1.02;0.93;;;18.00;99.90;;;;;;4967291;28;20048;-66
2022/06/06 13:32:06;;;;;;;0.80;0.80;;;18.10;99.90;;;;;;4983024;28;20699;-66
2022/06/06 13:34:54;;;;;;;1.20;0.90;;;18.30;99.90;;;;;;5000991;28;20085;-66
2022/06/06 13:37:58;;;;;;;1.10;1.00;;;18.30;99.90;;;;;;4975055;28;20545;-66
2022/06/06 13:40:45;;;;;;;2.33;1.20;;;18.40;99.90;;;;;;4984709;28;20183;-66
2022/06/06 13:43:30;;;;;;;1.90;1.15;;;18.50;99.90;;;;;;5001671;28;20338;-65
2022/06/06 13:46:19;;;;;;;2.08;1.00;;;18.50;99.90;;;;;;5003217;28;20454;-66
2022/06/06 13:48:58;;;;;;;1.27;1.05;;;18.40;99.90;;;;;;4984295;28;20056;-66
2022/06/06 13:52:01;;;;;;;1.30;0.90;;;18.20;99.90;;;;;;4974460;28;20094;-65
2022/06/06 13:54:33;;;;;;;1.77;1.17;;;18.00;99.90;;;;;;4985082;28;20138;-65
2022/06/06 13:57:03;;;;;;;1.52;1.20;;;17.70;99.90;;;;;;4966043;28;20137;-68
2022/06/06 13:59:51;;;;;;;1.60;1.40;;;17.50;99.90;;;;;;4965037;28;20132;-67
2022/06/06 14:02:18;;;;;;;1.50;1.30;;;17.40;99.90;;;;;;4999029;28;20172;-66
2022/06/06 14:05:03;;;;;;;2.15;1.88;;;17.40;99.90;;;;;;4999325;28;20054;-66
2022/06/06 14:07:42;;;;;;;1.70;1.45;;;17.20;99.90;;;;;;5000215;28;20073;-68
2022/06/06 14:10:11;;;;;;;1.92;1.58;;;17.30;99.90;;;;;;4995933;28;20133;-68
2022/06/06 14:12:48;;;;;;;2.25;1.70;;;17.50;99.90;;;;;;4984934;28;20042;-68
2022/06/06 14:15:17;;;;;;;2.10;1.63;;;17.60;99.90;;;;;;4983760;28;20162;-70
2022/06/06 14:17:49;;;;;;;2.10;1.48;;;17.60;99.90;;;;;;4981353;28;20045;-68
2022/06/06 14:20:36;;;;;;;1.55;1.42;;;17.60;99.90;;;;;;5001108;28;20081;-66